sensor_id;sensor_type;location;lat;lon;timestamp;P1;durP1;ratioP1;P2;durP2;ratioP2
37305;SDS011;23193;42.656;21.170;2023-04-03T00:01:40;7.03;;;3.03;;
37305;SDS011;23193;42.656;21.170;2023-04-03T00:04:07;7.85;;;3.60;;
37305;SDS011;23193;42.656;21.170;2023-04-03T00:06:34;7.47;;;4.25;;
37305;SDS011;23193;42.656;21.170;2023-04-03T00:09:00;9.40;;;4.70;;
37305;SDS011;23193;42.656;21.170;2023-04-03T00:11:26;12.90;;;5.90;;
37305;SDS011;23193;42.656;21.170;2023-04-03T00:13:59;16.13;;;6.05;;
37305;SDS011;23193;42.656;21.170;2023-04-03T00:16:25;4.43;;;3.03;;
37305;SDS011;23193;42.656;21.170;2023-04-03T00:18:51;6.47;;;4.00;;
37305;SDS011;23193;42.656;21.170;2023-04-03T00:21:17;8.52;;;4.90;;
37305;SDS011;23193;42.656;21.170;2023-04-03T00:23:43;5.13;;;3.20;;
37305;SDS011;23193;42.656;21.170;2023-04-03T00:26:12;8.73;;;3.83;;
37305;SDS011;23193;42.656;21.170;2023-04-03T00:28:38;7.95;;;5.07;;
37305;SDS011;23193;42.656;21.170;2023-04-03T00:31:04;10.00;;;4.28;;
37305;SDS011;23193;42.656;21.170;2023-04-03T00:33:30;18.88;;;5.68;;
37305;SDS011;23193;42.656;21.170;2023-04-03T00:35:56;10.68;;;5.60;;
37305;SDS011;23193;42.656;21.170;2023-04-03T00:38:22;9.48;;;5.95;;
37305;SDS011;23193;42.656;21.170;2023-04-03T00:40:49;17.30;;;7.82;;
37305;SDS011;23193;42.656;21.170;2023-04-03T00:43:19;19.02;;;8.65;;
37305;SDS011;23193;42.656;21.170;2023-04-03T00:45:49;15.68;;;8.07;;
37305;SDS011;23193;42.656;21.170;2023-04-03T00:48:23;22.33;;;11.27;;
37305;SDS011;23193;42.656;21.170;2023-04-03T00:50:51;26.13;;;8.85;;
37305;SDS011;23193;42.656;21.170;2023-04-03T00:53:19;16.25;;;8.50;;
37305;SDS011;23193;42.656;21.170;2023-04-03T00:55:48;20.95;;;9.57;;
37305;SDS011;23193;42.656;21.170;2023-04-03T00:58:15;24.67;;;8.40;;
37305;SDS011;23193;42.656;21.170;2023-04-03T01:00:44;16.77;;;8.70;;
37305;SDS011;23193;42.656;21.170;2023-04-03T01:03:10;15.27;;;8.02;;
37305;SDS011;23193;42.656;21.170;2023-04-03T01:05:37;15.57;;;6.95;;
37305;SDS011;23193;42.656;21.170;2023-04-03T01:08:03;14.10;;;6.97;;
37305;SDS011;23193;42.656;21.170;2023-04-03T01:10:30;13.63;;;7.32;;
37305;SDS011;23193;42.656;21.170;2023-04-03T01:12:56;15.05;;;7.72;;
37305;SDS011;23193;42.656;21.170;2023-04-03T01:15:23;12.88;;;6.47;;
37305;SDS011;23193;42.656;21.170;2023-04-03T01:17:54;17.15;;;7.57;;
37305;SDS011;23193;42.656;21.170;2023-04-03T01:25:45;14.52;;;6.38;;
37305;SDS011;23193;42.656;21.170;2023-04-03T01:28:16;10.15;;;6.50;;
37305;SDS011;23193;42.656;21.170;2023-04-03T01:33:08;11.55;;;7.25;;
37305;SDS011;23193;42.656;21.170;2023-04-03T01:35:34;12.65;;;6.30;;
37305;SDS011;23193;42.656;21.170;2023-04-03T01:38:01;13.45;;;7.20;;
37305;SDS011;23193;42.656;21.170;2023-04-03T01:40:27;10.50;;;6.68;;
37305;SDS011;23193;42.656;21.170;2023-04-03T01:42:53;12.77;;;6.65;;
37305;SDS011;23193;42.656;21.170;2023-04-03T01:45:19;10.38;;;7.20;;
37305;SDS011;23193;42.656;21.170;2023-04-03T01:47:45;12.35;;;6.15;;
37305;SDS011;23193;42.656;21.170;2023-04-03T01:50:11;11.65;;;6.25;;
37305;SDS011;23193;42.656;21.170;2023-04-03T01:52:37;7.20;;;5.40;;
37305;SDS011;23193;42.656;21.170;2023-04-03T01:55:03;9.15;;;5.30;;
37305;SDS011;23193;42.656;21.170;2023-04-03T01:57:29;8.38;;;5.45;;
37305;SDS011;23193;42.656;21.170;2023-04-03T01:59:55;7.78;;;5.97;;
37305;SDS011;23193;42.656;21.170;2023-04-03T02:02:21;9.27;;;6.05;;
37305;SDS011;23193;42.656;21.170;2023-04-03T02:04:48;8.88;;;6.60;;
37305;SDS011;23193;42.656;21.170;2023-04-03T02:07:14;9.18;;;6.63;;
37305;SDS011;23193;42.656;21.170;2023-04-03T02:09:40;10.52;;;7.93;;
37305;SDS011;23193;42.656;21.170;2023-04-03T02:12:06;11.30;;;7.72;;
37305;SDS011;23193;42.656;21.170;2023-04-03T02:14:32;10.38;;;7.03;;
37305;SDS011;23193;42.656;21.170;2023-04-03T02:16:59;9.95;;;7.50;;
37305;SDS011;23193;42.656;21.170;2023-04-03T02:19:26;12.05;;;7.45;;
37305;SDS011;23193;42.656;21.170;2023-04-03T02:21:52;11.00;;;7.60;;
37305;SDS011;23193;42.656;21.170;2023-04-03T02:24:18;12.65;;;7.43;;
37305;SDS011;23193;42.656;21.170;2023-04-03T02:26:44;12.93;;;8.30;;
37305;SDS011;23193;42.656;21.170;2023-04-03T02:29:10;10.30;;;7.47;;
37305;SDS011;23193;42.656;21.170;2023-04-03T02:31:36;15.98;;;8.65;;
37305;SDS011;23193;42.656;21.170;2023-04-03T02:34:02;14.90;;;8.57;;
37305;SDS011;23193;42.656;21.170;2023-04-03T02:36:29;12.43;;;7.13;;
37305;SDS011;23193;42.656;21.170;2023-04-03T02:38:55;12.07;;;8.05;;
37305;SDS011;23193;42.656;21.170;2023-04-03T02:41:21;11.68;;;7.63;;
37305;SDS011;23193;42.656;21.170;2023-04-03T02:43:47;19.10;;;8.50;;
37305;SDS011;23193;42.656;21.170;2023-04-03T02:46:13;13.95;;;8.20;;
37305;SDS011;23193;42.656;21.170;2023-04-03T02:48:40;13.38;;;8.05;;
37305;SDS011;23193;42.656;21.170;2023-04-03T02:51:06;17.48;;;9.43;;
37305;SDS011;23193;42.656;21.170;2023-04-03T02:53:32;14.70;;;8.93;;
37305;SDS011;23193;42.656;21.170;2023-04-03T02:55:58;15.10;;;8.90;;
37305;SDS011;23193;42.656;21.170;2023-04-03T02:58:24;19.85;;;9.55;;
37305;SDS011;23193;42.656;21.170;2023-04-03T03:00:50;15.90;;;9.82;;
37305;SDS011;23193;42.656;21.170;2023-04-03T03:03:16;17.88;;;10.20;;
37305;SDS011;23193;42.656;21.170;2023-04-03T03:05:43;12.25;;;9.38;;
37305;SDS011;23193;42.656;21.170;2023-04-03T03:08:09;13.20;;;9.40;;
37305;SDS011;23193;42.656;21.170;2023-04-03T03:10:35;12.50;;;10.10;;
37305;SDS011;23193;42.656;21.170;2023-04-03T03:13:01;13.27;;;10.07;;
37305;SDS011;23193;42.656;21.170;2023-04-03T03:15:27;15.43;;;8.98;;
37305;SDS011;23193;42.656;21.170;2023-04-03T03:17:53;10.82;;;8.98;;
37305;SDS011;23193;42.656;21.170;2023-04-03T03:20:19;13.13;;;8.98;;
37305;SDS011;23193;42.656;21.170;2023-04-03T03:22:46;14.45;;;9.32;;
37305;SDS011;23193;42.656;21.170;2023-04-03T03:25:12;12.63;;;9.73;;
37305;SDS011;23193;42.656;21.170;2023-04-03T03:27:38;10.50;;;8.95;;
37305;SDS011;23193;42.656;21.170;2023-04-03T03:30:04;13.57;;;9.07;;
37305;SDS011;23193;42.656;21.170;2023-04-03T03:32:31;13.60;;;9.60;;
37305;SDS011;23193;42.656;21.170;2023-04-03T03:34:57;15.55;;;9.45;;
37305;SDS011;23193;42.656;21.170;2023-04-03T03:37:23;16.13;;;10.40;;
37305;SDS011;23193;42.656;21.170;2023-04-03T03:39:49;18.67;;;10.80;;
37305;SDS011;23193;42.656;21.170;2023-04-03T03:42:15;19.80;;;12.05;;
37305;SDS011;23193;42.656;21.170;2023-04-03T03:44:41;20.30;;;10.55;;
37305;SDS011;23193;42.656;21.170;2023-04-03T03:47:07;16.08;;;11.15;;
37305;SDS011;23193;42.656;21.170;2023-04-03T03:49:35;17.63;;;10.20;;
37305;SDS011;23193;42.656;21.170;2023-04-03T03:52:01;15.05;;;10.65;;
37305;SDS011;23193;42.656;21.170;2023-04-03T03:54:27;15.15;;;9.98;;
37305;SDS011;23193;42.656;21.170;2023-04-03T03:56:54;13.95;;;10.52;;
37305;SDS011;23193;42.656;21.170;2023-04-03T03:59:20;14.60;;;10.13;;
37305;SDS011;23193;42.656;21.170;2023-04-03T04:01:46;14.88;;;10.27;;
37305;SDS011;23193;42.656;21.170;2023-04-03T04:04:12;16.20;;;10.35;;
37305;SDS011;23193;42.656;21.170;2023-04-03T04:06:39;17.58;;;11.32;;
37305;SDS011;23193;42.656;21.170;2023-04-03T04:09:05;18.85;;;12.30;;
37305;SDS011;23193;42.656;21.170;2023-04-03T04:11:31;19.02;;;11.50;;
37305;SDS011;23193;42.656;21.170;2023-04-03T04:13:58;14.88;;;11.27;;
37305;SDS011;23193;42.656;21.170;2023-04-03T04:16:24;19.27;;;10.73;;
37305;SDS011;23193;42.656;21.170;2023-04-03T04:18:50;18.17;;;11.82;;
37305;SDS011;23193;42.656;21.170;2023-04-03T04:21:16;21.23;;;12.73;;
37305;SDS011;23193;42.656;21.170;2023-04-03T04:23:43;17.48;;;11.20;;
37305;SDS011;23193;42.656;21.170;2023-04-03T04:26:09;19.17;;;12.00;;
37305;SDS011;23193;42.656;21.170;2023-04-03T04:28:35;15.10;;;10.57;;
37305;SDS011;23193;42.656;21.170;2023-04-03T04:31:01;14.85;;;10.25;;
37305;SDS011;23193;42.656;21.170;2023-04-03T04:33:27;19.60;;;10.25;;
37305;SDS011;23193;42.656;21.170;2023-04-03T04:35:54;14.63;;;10.70;;
37305;SDS011;23193;42.656;21.170;2023-04-03T04:38:20;17.92;;;10.30;;
37305;SDS011;23193;42.656;21.170;2023-04-03T04:40:47;12.77;;;9.18;;
37305;SDS011;23193;42.656;21.170;2023-04-03T04:43:13;17.33;;;9.98;;
37305;SDS011;23193;42.656;21.170;2023-04-03T04:45:40;17.58;;;10.15;;
37305;SDS011;23193;42.656;21.170;2023-04-03T04:48:06;15.68;;;9.52;;
37305;SDS011;23193;42.656;21.170;2023-04-03T04:50:32;16.73;;;9.80;;
37305;SDS011;23193;42.656;21.170;2023-04-03T04:52:58;13.45;;;10.20;;
37305;SDS011;23193;42.656;21.170;2023-04-03T04:55:24;12.10;;;9.15;;
37305;SDS011;23193;42.656;21.170;2023-04-03T04:57:50;14.65;;;9.45;;
37305;SDS011;23193;42.656;21.170;2023-04-03T05:00:16;14.73;;;9.45;;
37305;SDS011;23193;42.656;21.170;2023-04-03T05:02:43;15.65;;;10.10;;
37305;SDS011;23193;42.656;21.170;2023-04-03T05:05:09;11.43;;;8.93;;
37305;SDS011;23193;42.656;21.170;2023-04-03T05:07:35;11.20;;;9.38;;
37305;SDS011;23193;42.656;21.170;2023-04-03T05:10:02;15.77;;;10.15;;
37305;SDS011;23193;42.656;21.170;2023-04-03T05:12:28;12.30;;;9.55;;
37305;SDS011;23193;42.656;21.170;2023-04-03T05:14:54;12.10;;;9.48;;
37305;SDS011;23193;42.656;21.170;2023-04-03T05:17:20;13.55;;;8.93;;
37305;SDS011;23193;42.656;21.170;2023-04-03T05:19:46;14.35;;;10.32;;
37305;SDS011;23193;42.656;21.170;2023-04-03T05:22:13;17.38;;;10.32;;
37305;SDS011;23193;42.656;21.170;2023-04-03T05:24:40;15.90;;;10.30;;
37305;SDS011;23193;42.656;21.170;2023-04-03T05:27:06;16.80;;;11.02;;
37305;SDS011;23193;42.656;21.170;2023-04-03T05:29:32;12.70;;;9.02;;
37305;SDS011;23193;42.656;21.170;2023-04-03T05:31:58;19.25;;;10.38;;
37305;SDS011;23193;42.656;21.170;2023-04-03T05:34:24;11.52;;;8.77;;
37305;SDS011;23193;42.656;21.170;2023-04-03T05:36:50;15.88;;;9.50;;
37305;SDS011;23193;42.656;21.170;2023-04-03T05:39:16;11.55;;;8.75;;
37305;SDS011;23193;42.656;21.170;2023-04-03T05:41:42;12.43;;;9.07;;
37305;SDS011;23193;42.656;21.170;2023-04-03T05:44:09;11.18;;;8.50;;
37305;SDS011;23193;42.656;21.170;2023-04-03T05:46:35;10.80;;;8.57;;
37305;SDS011;23193;42.656;21.170;2023-04-03T05:49:01;12.82;;;8.88;;
37305;SDS011;23193;42.656;21.170;2023-04-03T05:51:32;21.45;;;9.25;;
37305;SDS011;23193;42.656;21.170;2023-04-03T05:54:00;15.07;;;9.05;;
37305;SDS011;23193;42.656;21.170;2023-04-03T05:56:28;13.30;;;9.18;;
37305;SDS011;23193;42.656;21.170;2023-04-03T05:58:54;12.80;;;9.15;;
37305;SDS011;23193;42.656;21.170;2023-04-03T06:01:21;12.52;;;9.32;;
37305;SDS011;23193;42.656;21.170;2023-04-03T06:03:48;11.30;;;8.40;;
37305;SDS011;23193;42.656;21.170;2023-04-03T06:06:14;14.13;;;10.27;;
37305;SDS011;23193;42.656;21.170;2023-04-03T06:08:40;16.33;;;10.30;;
37305;SDS011;23193;42.656;21.170;2023-04-03T06:11:06;15.05;;;10.15;;
37305;SDS011;23193;42.656;21.170;2023-04-03T06:13:33;14.77;;;9.80;;
37305;SDS011;23193;42.656;21.170;2023-04-03T06:16:00;14.25;;;9.32;;
37305;SDS011;23193;42.656;21.170;2023-04-03T06:18:27;14.38;;;8.13;;
37305;SDS011;23193;42.656;21.170;2023-04-03T06:20:53;11.40;;;7.95;;
37305;SDS011;23193;42.656;21.170;2023-04-03T06:23:20;14.70;;;8.68;;
37305;SDS011;23193;42.656;21.170;2023-04-03T06:25:46;13.77;;;8.25;;
37305;SDS011;23193;42.656;21.170;2023-04-03T06:28:12;11.63;;;7.80;;
37305;SDS011;23193;42.656;21.170;2023-04-03T06:30:38;9.20;;;7.60;;
37305;SDS011;23193;42.656;21.170;2023-04-03T06:33:04;15.73;;;8.13;;
37305;SDS011;23193;42.656;21.170;2023-04-03T06:35:31;8.48;;;6.72;;
37305;SDS011;23193;42.656;21.170;2023-04-03T06:37:57;10.20;;;7.15;;
37305;SDS011;23193;42.656;21.170;2023-04-03T06:40:23;9.20;;;7.45;;
37305;SDS011;23193;42.656;21.170;2023-04-03T06:42:51;13.32;;;6.20;;
37305;SDS011;23193;42.656;21.170;2023-04-03T06:45:17;11.07;;;6.43;;
37305;SDS011;23193;42.656;21.170;2023-04-03T06:47:44;9.90;;;8.00;;
37305;SDS011;23193;42.656;21.170;2023-04-03T06:50:10;10.55;;;6.63;;
37305;SDS011;23193;42.656;21.170;2023-04-03T06:52:39;14.77;;;7.20;;
37305;SDS011;23193;42.656;21.170;2023-04-03T06:55:05;7.18;;;6.07;;
37305;SDS011;23193;42.656;21.170;2023-04-03T06:57:31;12.75;;;6.63;;
37305;SDS011;23193;42.656;21.170;2023-04-03T06:59:57;8.55;;;6.40;;
37305;SDS011;23193;42.656;21.170;2023-04-03T07:02:23;12.93;;;7.10;;
37305;SDS011;23193;42.656;21.170;2023-04-03T07:04:49;9.48;;;7.20;;
37305;SDS011;23193;42.656;21.170;2023-04-03T07:07:15;7.97;;;6.15;;
37305;SDS011;23193;42.656;21.170;2023-04-03T07:09:42;7.70;;;6.00;;
37305;SDS011;23193;42.656;21.170;2023-04-03T07:12:09;9.20;;;6.10;;
37305;SDS011;23193;42.656;21.170;2023-04-03T07:14:35;12.27;;;6.35;;
37305;SDS011;23193;42.656;21.170;2023-04-03T07:17:01;7.68;;;5.90;;
37305;SDS011;23193;42.656;21.170;2023-04-03T07:19:28;5.90;;;5.03;;
37305;SDS011;23193;42.656;21.170;2023-04-03T07:21:54;6.82;;;5.93;;
37305;SDS011;23193;42.656;21.170;2023-04-03T07:24:20;11.30;;;6.80;;
37305;SDS011;23193;42.656;21.170;2023-04-03T07:26:50;13.43;;;6.15;;
37305;SDS011;23193;42.656;21.170;2023-04-03T07:29:17;16.08;;;5.60;;
37305;SDS011;23193;42.656;21.170;2023-04-03T07:31:43;10.95;;;5.45;;
37305;SDS011;23193;42.656;21.170;2023-04-03T07:34:09;7.22;;;5.25;;
37305;SDS011;23193;42.656;21.170;2023-04-03T07:36:36;12.80;;;5.97;;
37305;SDS011;23193;42.656;21.170;2023-04-03T07:39:02;9.23;;;4.93;;
37305;SDS011;23193;42.656;21.170;2023-04-03T07:41:28;16.55;;;7.07;;
37305;SDS011;23193;42.656;21.170;2023-04-03T07:43:55;9.23;;;4.72;;
37305;SDS011;23193;42.656;21.170;2023-04-03T07:46:22;8.57;;;6.13;;
37305;SDS011;23193;42.656;21.170;2023-04-03T07:48:48;9.65;;;5.35;;
37305;SDS011;23193;42.656;21.170;2023-04-03T07:51:14;9.23;;;5.80;;
37305;SDS011;23193;42.656;21.170;2023-04-03T07:53:41;7.93;;;4.72;;
37305;SDS011;23193;42.656;21.170;2023-04-03T07:56:07;9.15;;;4.95;;
37305;SDS011;23193;42.656;21.170;2023-04-03T07:58:34;10.65;;;4.55;;
37305;SDS011;23193;42.656;21.170;2023-04-03T08:01:00;8.68;;;5.75;;
37305;SDS011;23193;42.656;21.170;2023-04-03T08:03:27;12.07;;;6.40;;
37305;SDS011;23193;42.656;21.170;2023-04-03T08:05:53;16.27;;;7.15;;
37305;SDS011;23193;42.656;21.170;2023-04-03T08:08:21;15.20;;;6.47;;
37305;SDS011;23193;42.656;21.170;2023-04-03T08:10:48;8.90;;;6.30;;
37305;SDS011;23193;42.656;21.170;2023-04-03T08:13:15;12.52;;;6.85;;
37305;SDS011;23193;42.656;21.170;2023-04-03T08:15:41;10.45;;;7.03;;
37305;SDS011;23193;42.656;21.170;2023-04-03T08:18:07;12.55;;;8.48;;
37305;SDS011;23193;42.656;21.170;2023-04-03T08:20:33;18.65;;;12.23;;
37305;SDS011;23193;42.656;21.170;2023-04-03T08:22:59;21.55;;;13.57;;
37305;SDS011;23193;42.656;21.170;2023-04-03T08:25:25;20.77;;;13.63;;
37305;SDS011;23193;42.656;21.170;2023-04-03T08:27:52;24.85;;;14.15;;
37305;SDS011;23193;42.656;21.170;2023-04-03T08:30:18;20.48;;;14.25;;
37305;SDS011;23193;42.656;21.170;2023-04-03T08:32:44;24.77;;;16.63;;
37305;SDS011;23193;42.656;21.170;2023-04-03T08:35:10;22.55;;;15.65;;
37305;SDS011;23193;42.656;21.170;2023-04-03T08:37:37;24.85;;;15.35;;
37305;SDS011;23193;42.656;21.170;2023-04-03T08:40:05;19.80;;;14.63;;
37305;SDS011;23193;42.656;21.170;2023-04-03T08:42:40;25.60;;;17.65;;
37305;SDS011;23193;42.656;21.170;2023-04-03T08:45:10;80.90;;;43.83;;
37305;SDS011;23193;42.656;21.170;2023-04-03T08:47:47;35.30;;;18.90;;
37305;SDS011;23193;42.656;21.170;2023-04-03T08:50:18;31.23;;;20.95;;
37305;SDS011;23193;42.656;21.170;2023-04-03T08:52:47;29.20;;;16.70;;
37305;SDS011;23193;42.656;21.170;2023-04-03T08:55:21;27.80;;;19.48;;
37305;SDS011;23193;42.656;21.170;2023-04-03T08:57:48;28.83;;;19.45;;
37305;SDS011;23193;42.656;21.170;2023-04-03T09:00:18;28.05;;;18.88;;
37305;SDS011;23193;42.656;21.170;2023-04-03T09:02:48;25.50;;;19.15;;
37305;SDS011;23193;42.656;21.170;2023-04-03T09:05:18;28.23;;;19.70;;
37305;SDS011;23193;42.656;21.170;2023-04-03T09:07:46;31.10;;;17.67;;
37305;SDS011;23193;42.656;21.170;2023-04-03T09:10:14;27.02;;;17.08;;
37305;SDS011;23193;42.656;21.170;2023-04-03T09:12:49;29.58;;;18.95;;
37305;SDS011;23193;42.656;21.170;2023-04-03T09:15:23;29.48;;;19.95;;
37305;SDS011;23193;42.656;21.170;2023-04-03T09:23:13;32.38;;;18.70;;
37305;SDS011;23193;42.656;21.170;2023-04-03T09:25:41;33.03;;;17.45;;
37305;SDS011;23193;42.656;21.170;2023-04-03T09:28:07;27.05;;;18.15;;
37305;SDS011;23193;42.656;21.170;2023-04-03T09:30:35;27.55;;;18.83;;
37305;SDS011;23193;42.656;21.170;2023-04-03T09:33:02;23.10;;;17.05;;
37305;SDS011;23193;42.656;21.170;2023-04-03T09:35:32;28.15;;;18.98;;
37305;SDS011;23193;42.656;21.170;2023-04-03T09:42:54;28.70;;;19.00;;
37305;SDS011;23193;42.656;21.170;2023-04-03T09:45:32;28.40;;;17.40;;
37305;SDS011;23193;42.656;21.170;2023-04-03T09:50:30;32.72;;;19.58;;
37305;SDS011;23193;42.656;21.170;2023-04-03T09:52:56;27.10;;;16.33;;
37305;SDS011;23193;42.656;21.170;2023-04-03T09:58:02;20.17;;;11.23;;
37305;SDS011;23193;42.656;21.170;2023-04-03T10:00:53;20.30;;;14.05;;
37305;SDS011;23193;42.656;21.170;2023-04-03T10:03:25;22.80;;;10.23;;
37305;SDS011;23193;42.656;21.170;2023-04-03T10:05:51;18.10;;;10.88;;
37305;SDS011;23193;42.656;21.170;2023-04-03T10:08:41;16.83;;;10.65;;
37305;SDS011;23193;42.656;21.170;2023-04-03T10:13:32;26.52;;;12.85;;
37305;SDS011;23193;42.656;21.170;2023-04-03T10:16:03;22.05;;;10.85;;
37305;SDS011;23193;42.656;21.170;2023-04-03T10:21:50;18.90;;;10.27;;
37305;SDS011;23193;42.656;21.170;2023-04-03T10:34:23;16.40;;;8.10;;
37305;SDS011;23193;42.656;21.170;2023-04-03T10:47:21;13.85;;;7.80;;
37305;SDS011;23193;42.656;21.170;2023-04-03T10:49:55;17.30;;;7.97;;
37305;SDS011;23193;42.656;21.170;2023-04-03T10:52:39;17.60;;;8.98;;
37305;SDS011;23193;42.656;21.170;2023-04-03T11:00:20;14.68;;;8.40;;
37305;SDS011;23193;42.656;21.170;2023-04-03T11:02:57;12.73;;;8.32;;
37305;SDS011;23193;42.656;21.170;2023-04-03T11:07:55;9.93;;;6.35;;
37305;SDS011;23193;42.656;21.170;2023-04-03T11:10:23;16.25;;;7.90;;
37305;SDS011;23193;42.656;21.170;2023-04-03T11:12:52;10.70;;;6.80;;
37305;SDS011;23193;42.656;21.170;2023-04-03T11:15:20;14.73;;;7.65;;
37305;SDS011;23193;42.656;21.170;2023-04-03T11:17:50;16.00;;;7.47;;
37305;SDS011;23193;42.656;21.170;2023-04-03T11:20:26;13.57;;;7.07;;
37305;SDS011;23193;42.656;21.170;2023-04-03T11:23:03;11.50;;;7.88;;
37305;SDS011;23193;42.656;21.170;2023-04-03T11:25:30;19.50;;;10.63;;
37305;SDS011;23193;42.656;21.170;2023-04-03T11:28:01;19.30;;;9.48;;
37305;SDS011;23193;42.656;21.170;2023-04-03T11:30:41;18.10;;;9.57;;
37305;SDS011;23193;42.656;21.170;2023-04-03T11:35:43;18.40;;;8.35;;
37305;SDS011;23193;42.656;21.170;2023-04-03T11:38:14;13.48;;;8.68;;
37305;SDS011;23193;42.656;21.170;2023-04-03T11:40:42;14.80;;;7.57;;
37305;SDS011;23193;42.656;21.170;2023-04-03T11:46:03;22.83;;;9.32;;
37305;SDS011;23193;42.656;21.170;2023-04-03T11:51:02;22.73;;;8.38;;
37305;SDS011;23193;42.656;21.170;2023-04-03T11:53:35;13.07;;;8.00;;
37305;SDS011;23193;42.656;21.170;2023-04-03T11:58:31;36.67;;;12.20;;
37305;SDS011;23193;42.656;21.170;2023-04-03T12:11:23;38.53;;;17.13;;
37305;SDS011;23193;42.656;21.170;2023-04-03T12:26:46;19.35;;;10.10;;
37305;SDS011;23193;42.656;21.170;2023-04-03T12:32:34;13.52;;;8.43;;
37305;SDS011;23193;42.656;21.170;2023-04-03T12:37:21;20.90;;;10.70;;
37305;SDS011;23193;42.656;21.170;2023-04-03T12:39:59;25.80;;;10.27;;
37305;SDS011;23193;42.656;21.170;2023-04-03T12:42:39;16.98;;;10.65;;
37305;SDS011;23193;42.656;21.170;2023-04-03T12:45:22;26.98;;;11.70;;
37305;SDS011;23193;42.656;21.170;2023-04-03T12:47:52;22.17;;;12.20;;
37305;SDS011;23193;42.656;21.170;2023-04-03T12:55:21;24.33;;;12.40;;
37305;SDS011;23193;42.656;21.170;2023-04-03T12:57:47;22.80;;;13.65;;
37305;SDS011;23193;42.656;21.170;2023-04-03T13:02:55;24.05;;;13.50;;
37305;SDS011;23193;42.656;21.170;2023-04-03T13:05:21;20.58;;;12.93;;
37305;SDS011;23193;42.656;21.170;2023-04-03T13:07:49;20.90;;;13.57;;
37305;SDS011;23193;42.656;21.170;2023-04-03T13:10:16;22.13;;;13.55;;
37305;SDS011;23193;42.656;21.170;2023-04-03T13:12:50;18.83;;;12.23;;
37305;SDS011;23193;42.656;21.170;2023-04-03T13:15:20;20.08;;;13.32;;
37305;SDS011;23193;42.656;21.170;2023-04-03T13:17:48;21.88;;;13.93;;
37305;SDS011;23193;42.656;21.170;2023-04-03T13:20:24;24.15;;;14.95;;
37305;SDS011;23193;42.656;21.170;2023-04-03T13:22:52;30.02;;;15.75;;
37305;SDS011;23193;42.656;21.170;2023-04-03T13:25:19;25.40;;;16.17;;
37305;SDS011;23193;42.656;21.170;2023-04-03T13:27:46;20.98;;;13.60;;
37305;SDS011;23193;42.656;21.170;2023-04-03T13:32:45;28.30;;;15.95;;
37305;SDS011;23193;42.656;21.170;2023-04-03T13:35:27;28.98;;;17.33;;
37305;SDS011;23193;42.656;21.170;2023-04-03T13:37:55;36.67;;;18.05;;
37305;SDS011;23193;42.656;21.170;2023-04-03T13:40:22;28.52;;;17.60;;
37305;SDS011;23193;42.656;21.170;2023-04-03T13:42:57;26.83;;;17.10;;
37305;SDS011;23193;42.656;21.170;2023-04-03T13:45:25;28.10;;;18.70;;
37305;SDS011;23193;42.656;21.170;2023-04-03T13:47:55;30.40;;;17.50;;
37305;SDS011;23193;42.656;21.170;2023-04-03T13:50:32;29.85;;;17.60;;
37305;SDS011;23193;42.656;21.170;2023-04-03T13:53:17;24.40;;;15.02;;
37305;SDS011;23193;42.656;21.170;2023-04-03T13:58:29;35.22;;;19.45;;
37305;SDS011;23193;42.656;21.170;2023-04-03T14:03:31;24.10;;;15.73;;
37305;SDS011;23193;42.656;21.170;2023-04-03T14:05:58;29.27;;;18.00;;
37305;SDS011;23193;42.656;21.170;2023-04-03T14:08:24;34.70;;;21.77;;
37305;SDS011;23193;42.656;21.170;2023-04-03T14:10:52;36.08;;;20.40;;
37305;SDS011;23193;42.656;21.170;2023-04-03T14:13:19;31.05;;;18.35;;
37305;SDS011;23193;42.656;21.170;2023-04-03T14:15:46;20.20;;;13.73;;
37305;SDS011;23193;42.656;21.170;2023-04-03T14:18:15;27.55;;;16.42;;
37305;SDS011;23193;42.656;21.170;2023-04-03T14:20:42;29.65;;;18.13;;
37305;SDS011;23193;42.656;21.170;2023-04-03T14:23:09;29.40;;;17.33;;
37305;SDS011;23193;42.656;21.170;2023-04-03T14:25:36;24.80;;;17.10;;
37305;SDS011;23193;42.656;21.170;2023-04-03T14:28:17;27.70;;;16.08;;
37305;SDS011;23193;42.656;21.170;2023-04-03T14:30:44;24.33;;;15.65;;
37305;SDS011;23193;42.656;21.170;2023-04-03T14:33:14;29.55;;;17.67;;
37305;SDS011;23193;42.656;21.170;2023-04-03T14:35:40;32.10;;;18.65;;
37305;SDS011;23193;42.656;21.170;2023-04-03T14:38:24;30.75;;;17.38;;
37305;SDS011;23193;42.656;21.170;2023-04-03T14:40:50;25.50;;;14.85;;
37305;SDS011;23193;42.656;21.170;2023-04-03T14:43:17;32.33;;;18.35;;
37305;SDS011;23193;42.656;21.170;2023-04-03T14:45:43;31.17;;;19.10;;
37305;SDS011;23193;42.656;21.170;2023-04-03T14:48:13;33.53;;;18.27;;
37305;SDS011;23193;42.656;21.170;2023-04-03T14:50:41;41.17;;;21.45;;
37305;SDS011;23193;42.656;21.170;2023-04-03T14:53:10;26.40;;;15.35;;
37305;SDS011;23193;42.656;21.170;2023-04-03T14:55:36;45.28;;;26.00;;
37305;SDS011;23193;42.656;21.170;2023-04-03T14:58:02;42.05;;;23.48;;
37305;SDS011;23193;42.656;21.170;2023-04-03T15:00:28;32.90;;;17.50;;
37305;SDS011;23193;42.656;21.170;2023-04-03T15:02:55;24.52;;;12.07;;
37305;SDS011;23193;42.656;21.170;2023-04-03T15:05:21;25.52;;;14.35;;
37305;SDS011;23193;42.656;21.170;2023-04-03T15:07:52;28.38;;;14.63;;
37305;SDS011;23193;42.656;21.170;2023-04-03T15:10:20;47.75;;;24.58;;
37305;SDS011;23193;42.656;21.170;2023-04-03T15:12:47;43.20;;;22.27;;
37305;SDS011;23193;42.656;21.170;2023-04-03T15:15:14;34.80;;;15.45;;
37305;SDS011;23193;42.656;21.170;2023-04-03T15:17:40;29.60;;;15.13;;
37305;SDS011;23193;42.656;21.170;2023-04-03T15:20:15;28.38;;;13.43;;
37305;SDS011;23193;42.656;21.170;2023-04-03T15:22:41;17.90;;;9.65;;
37305;SDS011;23193;42.656;21.170;2023-04-03T15:25:08;20.38;;;10.75;;
37305;SDS011;23193;42.656;21.170;2023-04-03T15:27:34;22.20;;;10.38;;
37305;SDS011;23193;42.656;21.170;2023-04-03T15:30:03;24.85;;;13.35;;
37305;SDS011;23193;42.656;21.170;2023-04-03T15:32:30;19.88;;;9.93;;
37305;SDS011;23193;42.656;21.170;2023-04-03T15:34:56;18.27;;;10.20;;
37305;SDS011;23193;42.656;21.170;2023-04-03T15:37:22;19.60;;;10.40;;
37305;SDS011;23193;42.656;21.170;2023-04-03T15:39:48;129.27;;;70.47;;
37305;SDS011;23193;42.656;21.170;2023-04-03T15:42:15;294.05;;;177.93;;
37305;SDS011;23193;42.656;21.170;2023-04-03T15:44:41;36.28;;;20.15;;
37305;SDS011;23193;42.656;21.170;2023-04-03T15:47:07;31.00;;;16.88;;
37305;SDS011;23193;42.656;21.170;2023-04-03T15:49:34;105.75;;;54.17;;
37305;SDS011;23193;42.656;21.170;2023-04-03T15:52:00;33.60;;;18.52;;
37305;SDS011;23193;42.656;21.170;2023-04-03T15:54:27;33.05;;;18.52;;
37305;SDS011;23193;42.656;21.170;2023-04-03T15:56:54;44.50;;;25.08;;
37305;SDS011;23193;42.656;21.170;2023-04-03T15:59:21;26.15;;;13.23;;
37305;SDS011;23193;42.656;21.170;2023-04-03T16:01:47;83.32;;;44.35;;
37305;SDS011;23193;42.656;21.170;2023-04-03T16:04:15;38.92;;;19.50;;
37305;SDS011;23193;42.656;21.170;2023-04-03T16:06:41;255.02;;;127.10;;
37305;SDS011;23193;42.656;21.170;2023-04-03T16:09:07;415.45;;;218.95;;
37305;SDS011;23193;42.656;21.170;2023-04-03T16:11:34;770.13;;;482.35;;